createdAt,value
2019-03-13T00:00:09.031Z,13.13
2019-03-13T00:01:33.034Z,14.05
2019-03-13T00:02:39.455Z,15.35
2019-03-13T00:03:44.532Z,13.30
2019-03-13T00:04:49.411Z,13.90
2019-03-13T00:05:54.522Z,15.03
2019-03-13T00:06:59.537Z,13.48
2019-03-13T00:08:04.806Z,14.33
2019-03-13T00:09:11.613Z,14.18
2019-03-13T00:10:16.759Z,13.43
2019-03-13T00:11:21.964Z,14.07
2019-03-13T00:12:27.127Z,13.32
2019-03-13T00:13:32.067Z,14.50
2019-03-13T00:14:37.032Z,12.82
2019-03-13T00:15:41.967Z,13.65
2019-03-13T00:16:46.987Z,13.53
2019-03-13T00:17:52.218Z,14.73
2019-03-13T00:18:57.116Z,13.90
2019-03-13T00:20:01.935Z,14.78
2019-03-13T00:21:07.147Z,14.78
2019-03-13T00:22:13.415Z,14.65
2019-03-13T00:23:18.559Z,14.03
2019-03-13T00:24:23.996Z,14.78
2019-03-13T00:25:29.171Z,15.08
2019-03-13T00:26:34.092Z,15.10
2019-03-13T00:27:39.107Z,14.07
2019-03-13T00:28:44.621Z,14.28
2019-03-13T00:29:49.551Z,13.98
2019-03-13T00:30:54.773Z,15.45
2019-03-13T00:31:59.876Z,13.93
2019-03-13T00:33:05.139Z,14.95
2019-03-13T00:34:10.291Z,15.55
2019-03-13T00:35:15.373Z,15.25
2019-03-13T00:36:20.283Z,15.70
2019-03-13T00:37:25.276Z,14.80
2019-03-13T00:38:30.271Z,14.47
2019-03-13T00:39:35.195Z,14.73
2019-03-13T00:40:40.297Z,14.98
2019-03-13T00:41:45.250Z,15.45
2019-03-13T00:42:50.246Z,14.75
2019-03-13T00:43:55.302Z,15.80
2019-03-13T00:45:00.401Z,13.95
2019-03-13T00:46:05.591Z,15.15
2019-03-13T00:47:10.503Z,15.78
2019-03-13T00:48:15.460Z,15.05
2019-03-13T00:49:20.548Z,15.80
2019-03-13T00:50:27.769Z,16.70
2019-03-13T00:51:32.727Z,16.67
2019-03-13T00:52:37.730Z,16.60
2019-03-13T00:53:42.664Z,17.37
2019-03-13T00:54:47.511Z,16.32
2019-03-13T00:55:52.491Z,17.50
2019-03-13T00:56:57.563Z,17.92
2019-03-13T00:58:02.405Z,17.90
2019-03-13T00:59:07.419Z,18.60
2019-03-13T01:00:14.365Z,16.30
2019-03-13T01:01:38.290Z,16.85
2019-03-13T01:02:44.883Z,16.23
2019-03-13T01:03:57.554Z,17.40
2019-03-13T01:05:24.498Z,16.55
2019-03-13T01:06:41.783Z,17.07
2019-03-13T01:07:46.730Z,16.23
2019-03-13T01:08:51.746Z,16.87
2019-03-13T01:09:56.626Z,17.37
2019-03-13T01:11:01.574Z,18.12
2019-03-13T01:12:07.262Z,18.02
2019-03-13T01:13:12.254Z,17.17
2019-03-13T01:14:17.151Z,17.50
2019-03-13T01:15:22.174Z,18.30
2019-03-13T01:16:27.114Z,18.02
2019-03-13T01:17:32.198Z,17.85
2019-03-13T01:18:37.237Z,17.37
2019-03-13T01:19:42.189Z,17.82
2019-03-13T01:20:47.204Z,16.95
2019-03-13T01:21:52.107Z,16.42
2019-03-13T01:22:57.099Z,16.77
2019-03-13T01:24:02.136Z,17.37
2019-03-13T01:25:07.760Z,16.52
2019-03-13T01:26:12.775Z,17.30
2019-03-13T01:27:17.890Z,18.77
2019-03-13T01:28:22.831Z,17.02
2019-03-13T01:29:27.756Z,16.97
2019-03-13T01:30:42.841Z,17.70
2019-03-13T01:32:09.435Z,18.07
2019-03-13T01:33:16.292Z,17.15
2019-03-13T01:34:33.718Z,17.00
2019-03-13T01:35:49.068Z,17.98
2019-03-13T01:36:53.864Z,16.45
2019-03-13T01:37:58.896Z,18.15
2019-03-13T01:39:04.612Z,17.23
2019-03-13T01:40:10.980Z,16.67
2019-03-13T01:41:15.862Z,18.52
2019-03-13T01:42:21.115Z,18.35
2019-03-13T01:43:26.176Z,18.05
2019-03-13T01:44:31.029Z,18.10
2019-03-13T01:45:35.977Z,17.60
2019-03-13T01:46:40.832Z,17.73
2019-03-13T01:47:45.797Z,17.98
2019-03-13T01:48:50.752Z,18.87
2019-03-13T01:49:55.754Z,17.92
2019-03-13T01:51:00.711Z,18.27
2019-03-13T01:52:05.609Z,18.05
2019-03-13T01:53:10.535Z,18.00
2019-03-13T01:54:18.330Z,18.25
2019-03-13T01:55:24.383Z,19.45
2019-03-13T01:56:29.396Z,18.48
2019-03-13T01:57:34.276Z,18.37
2019-03-13T01:58:39.245Z,17.95
2019-03-13T01:59:44.134Z,18.62
2019-03-13T02:00:49.075Z,17.10
2019-03-13T02:01:53.959Z,18.82
2019-03-13T02:02:58.939Z,18.07
2019-03-13T02:04:03.828Z,18.75
2019-03-13T02:05:09.251Z,18.12
2019-03-13T02:06:14.353Z,17.42
2019-03-13T02:07:19.215Z,18.40
2019-03-13T02:08:24.096Z,18.10
2019-03-13T02:09:29.022Z,17.95
2019-03-13T02:10:34.023Z,19.15
2019-03-13T02:11:38.952Z,18.07
2019-03-13T02:12:44.020Z,16.57
2019-03-13T02:13:48.992Z,18.55
2019-03-13T02:14:54.055Z,18.65
2019-03-13T02:15:58.898Z,19.45
2019-03-13T02:17:03.742Z,18.62
2019-03-13T02:18:08.653Z,18.62
2019-03-13T02:19:13.622Z,17.82
2019-03-13T02:20:18.661Z,18.05
2019-03-13T02:21:24.022Z,17.82
2019-03-13T02:22:32.090Z,18.62
2019-03-13T02:23:37.062Z,17.00
2019-03-13T02:24:42.002Z,17.92
2019-03-13T02:25:46.835Z,18.17
2019-03-13T02:26:51.779Z,18.87
2019-03-13T02:27:56.781Z,18.55
2019-03-13T02:29:01.792Z,18.55
2019-03-13T02:30:07.659Z,18.80
2019-03-13T02:31:12.683Z,17.48
2019-03-13T02:32:17.597Z,18.32
2019-03-13T02:33:22.636Z,18.05
2019-03-13T02:34:27.811Z,18.12
2019-03-13T02:35:32.744Z,19.52
2019-03-13T02:36:37.641Z,18.65
2019-03-13T02:37:42.858Z,18.35
2019-03-13T02:38:47.955Z,18.42
2019-03-13T02:39:52.896Z,19.50
2019-03-13T02:40:57.796Z,19.15
2019-03-13T02:42:02.740Z,18.57
2019-03-13T02:43:07.698Z,18.73
2019-03-13T02:44:12.805Z,19.05
2019-03-13T02:45:17.982Z,18.00
2019-03-13T02:46:22.897Z,19.10
2019-03-13T02:47:27.751Z,19.95
2019-03-13T02:48:32.794Z,19.07
2019-03-13T02:49:37.811Z,18.92
2019-03-13T02:50:42.680Z,19.17
2019-03-13T02:51:47.619Z,18.95
2019-03-13T02:52:52.552Z,18.70
2019-03-13T02:53:57.442Z,17.98
2019-03-13T02:55:02.368Z,18.32
2019-03-13T02:56:07.339Z,17.50
2019-03-13T02:57:12.225Z,18.90
2019-03-13T02:58:17.362Z,19.82
2019-03-13T02:59:22.251Z,18.57
2019-03-13T03:00:48.215Z,18.37
2019-03-13T03:02:05.665Z,20.35
2019-03-13T03:03:18.926Z,20.08
2019-03-13T03:04:23.960Z,20.77
2019-03-13T03:05:29.027Z,21.85
2019-03-13T03:06:34.004Z,20.97
2019-03-13T03:07:38.981Z,21.55
2019-03-13T03:08:43.990Z,19.48
2019-03-13T03:09:48.978Z,20.32
2019-03-13T03:10:53.948Z,21.25
2019-03-13T03:11:58.855Z,20.60
2019-03-13T03:13:03.750Z,20.32
2019-03-13T03:14:08.671Z,19.92
2019-03-13T03:15:15.977Z,19.82
2019-03-13T03:16:21.003Z,18.95
2019-03-13T03:17:25.791Z,20.30
2019-03-13T03:18:30.791Z,19.15
2019-03-13T03:19:35.760Z,19.00
2019-03-13T03:20:40.730Z,20.35
2019-03-13T03:21:45.587Z,19.48
2019-03-13T03:22:50.514Z,19.10
2019-03-13T03:23:55.470Z,19.73
2019-03-13T03:25:00.597Z,19.45
2019-03-13T03:26:05.682Z,18.12
2019-03-13T03:27:10.673Z,17.17
2019-03-13T03:28:15.598Z,18.70
2019-03-13T03:29:21.542Z,20.15
2019-03-13T03:30:26.983Z,19.67
2019-03-13T03:31:31.986Z,19.32
2019-03-13T03:32:36.902Z,19.85
2019-03-13T03:33:41.821Z,19.10
2019-03-13T03:34:46.673Z,18.17
2019-03-13T03:35:51.542Z,18.98
2019-03-13T03:36:56.508Z,20.00
2019-03-13T03:38:01.279Z,17.40
2019-03-13T03:39:07.556Z,18.52
2019-03-13T03:40:14.265Z,18.40
2019-03-13T03:41:19.380Z,19.37
2019-03-13T03:42:24.479Z,19.70
2019-03-13T03:43:40.306Z,18.70
2019-03-13T03:44:36.110Z,18.62
2019-03-13T03:45:41.020Z,18.45
2019-03-13T03:46:45.818Z,17.48
2019-03-13T03:47:50.798Z,18.27
2019-03-13T03:48:55.711Z,19.32
2019-03-13T03:50:00.780Z,17.48
2019-03-13T03:51:05.750Z,19.02
2019-03-13T03:52:10.911Z,18.37
2019-03-13T03:53:15.820Z,16.82
2019-03-13T03:54:20.749Z,19.92
2019-03-13T03:55:25.604Z,16.40
2019-03-13T03:56:30.529Z,18.20
2019-03-13T03:57:35.590Z,17.60
2019-03-13T03:58:40.437Z,17.17
2019-03-13T03:59:45.412Z,17.98
2019-03-13T04:00:50.433Z,17.25
2019-03-13T04:01:55.528Z,17.45
2019-03-13T04:03:00.541Z,18.62
2019-03-13T04:04:05.535Z,18.02
2019-03-13T04:05:10.920Z,17.35
2019-03-13T04:06:16.484Z,16.75
2019-03-13T04:07:21.636Z,16.80
2019-03-13T04:08:26.594Z,17.50
2019-03-13T04:09:33.085Z,17.92
2019-03-13T04:10:38.074Z,17.50
2019-03-13T04:11:43.108Z,18.65
2019-03-13T04:12:48.002Z,17.42
2019-03-13T04:13:52.916Z,16.75
2019-03-13T04:14:57.973Z,17.02
2019-03-13T04:16:03.245Z,17.70
2019-03-13T04:17:08.197Z,17.50
2019-03-13T04:18:13.082Z,16.62
2019-03-13T04:19:17.969Z,17.37
2019-03-13T04:20:22.865Z,17.07
2019-03-13T04:21:27.725Z,16.35
2019-03-13T04:22:32.838Z,16.02
2019-03-13T04:23:37.779Z,15.88
2019-03-13T04:24:42.770Z,17.23
2019-03-13T04:25:50.285Z,17.42
2019-03-13T04:26:55.189Z,16.62
2019-03-13T04:28:00.384Z,15.20
2019-03-13T04:29:05.292Z,14.75
2019-03-13T04:30:11.016Z,15.35
2019-03-13T04:31:15.944Z,15.95
2019-03-13T04:32:20.823Z,16.05
2019-03-13T04:33:28.169Z,15.48
2019-03-13T04:34:32.641Z,16.85
2019-03-13T04:35:38.168Z,16.15
2019-03-13T04:36:43.089Z,15.78
2019-03-13T04:37:48.082Z,15.85
2019-03-13T04:38:53.014Z,15.32
2019-03-13T04:39:57.893Z,14.98
2019-03-13T04:41:02.810Z,16.87
2019-03-13T04:42:07.784Z,16.73
2019-03-13T04:43:12.680Z,14.87
2019-03-13T04:44:17.454Z,16.65
2019-03-13T04:45:22.342Z,15.75
2019-03-13T04:46:27.316Z,15.65
2019-03-13T04:47:32.284Z,15.95
2019-03-13T04:48:37.116Z,15.95
2019-03-13T04:49:42.056Z,15.53
2019-03-13T04:50:46.976Z,15.58
2019-03-13T04:51:51.840Z,15.88
2019-03-13T04:52:56.837Z,15.00
2019-03-13T04:54:01.900Z,15.35
2019-03-13T04:55:07.125Z,15.40
2019-03-13T04:56:12.004Z,15.45
2019-03-13T04:57:16.966Z,15.60
2019-03-13T04:58:21.926Z,13.98
2019-03-13T04:59:26.777Z,15.15
2019-03-13T05:00:31.706Z,15.10
2019-03-13T05:01:36.490Z,15.38
2019-03-13T05:02:41.448Z,15.32
2019-03-13T05:03:46.406Z,14.47
2019-03-13T05:04:51.399Z,15.03
2019-03-13T05:05:58.620Z,15.28
2019-03-13T05:07:03.521Z,14.68
2019-03-13T05:08:08.550Z,14.50
2019-03-13T05:09:16.496Z,15.23
2019-03-13T05:10:21.364Z,14.20
2019-03-13T05:11:26.467Z,14.68
2019-03-13T05:12:31.436Z,14.65
2019-03-13T05:13:36.485Z,14.35
2019-03-13T05:14:41.555Z,14.23
2019-03-13T05:15:46.704Z,14.55
2019-03-13T05:16:51.660Z,14.70
2019-03-13T05:17:56.677Z,13.83
2019-03-13T05:19:01.616Z,14.80
2019-03-13T05:20:07.057Z,14.47
2019-03-13T05:21:12.089Z,14.35
2019-03-13T05:22:17.041Z,14.40
2019-03-13T05:23:21.979Z,14.85
2019-03-13T05:24:26.896Z,14.28
2019-03-13T05:25:32.054Z,14.90
2019-03-13T05:26:36.998Z,14.95
2019-03-13T05:27:42.132Z,14.35
2019-03-13T05:28:47.302Z,13.25
2019-03-13T05:29:52.213Z,14.78
2019-03-13T05:30:57.125Z,15.05
2019-03-13T05:32:02.260Z,14.10
2019-03-13T05:33:10.283Z,13.70
2019-03-13T05:34:15.548Z,13.75
2019-03-13T05:35:20.671Z,14.78
2019-03-13T05:36:25.644Z,14.58
2019-03-13T05:37:30.524Z,13.98
2019-03-13T05:38:35.616Z,13.58
2019-03-13T05:39:40.499Z,14.58
2019-03-13T05:40:45.259Z,13.43
2019-03-13T05:41:50.541Z,14.20
2019-03-13T05:42:55.601Z,14.28
2019-03-13T05:44:00.769Z,14.60
2019-03-13T05:45:08.318Z,14.85
2019-03-13T05:46:13.506Z,14.90
2019-03-13T05:47:18.575Z,14.45
2019-03-13T05:48:23.622Z,15.25
2019-03-13T05:49:28.643Z,15.08
2019-03-13T05:50:33.719Z,13.65
2019-03-13T05:51:38.772Z,13.20
2019-03-13T05:52:44.000Z,13.15
2019-03-13T05:53:49.023Z,13.95
2019-03-13T05:54:53.848Z,13.62
2019-03-13T05:55:58.980Z,14.53
2019-03-13T05:57:03.979Z,14.18
2019-03-13T05:58:10.323Z,14.58
2019-03-13T05:59:15.468Z,13.58
2019-03-13T06:00:21.593Z,13.25
2019-03-13T06:01:26.389Z,12.85
2019-03-13T06:02:31.278Z,12.90
2019-03-13T06:03:36.457Z,13.22
2019-03-13T06:04:41.696Z,13.95
2019-03-13T06:05:46.555Z,13.80
2019-03-13T06:06:51.618Z,13.43
2019-03-13T06:07:56.780Z,14.75
2019-03-13T06:09:02.094Z,13.48
2019-03-13T06:10:07.192Z,14.93
2019-03-13T06:11:12.424Z,15.10
2019-03-13T06:12:17.348Z,13.95
2019-03-13T06:13:23.801Z,12.80
2019-03-13T06:14:30.520Z,14.20
2019-03-13T06:15:36.016Z,14.30
2019-03-13T06:16:40.994Z,13.30
2019-03-13T06:17:46.882Z,13.55
2019-03-13T06:18:53.126Z,13.13
2019-03-13T06:19:58.260Z,13.25
2019-03-13T06:21:03.898Z,12.50
2019-03-13T06:22:09.000Z,12.70
2019-03-13T06:23:13.993Z,12.78
2019-03-13T06:24:21.428Z,12.53
2019-03-13T06:25:26.412Z,12.70
2019-03-13T06:26:32.595Z,11.75
2019-03-13T06:27:38.649Z,12.75
2019-03-13T06:28:44.699Z,11.40
2019-03-13T06:29:49.839Z,12.30
2019-03-13T06:30:55.091Z,11.38
2019-03-13T06:32:00.255Z,11.53
2019-03-13T06:33:05.241Z,11.33
2019-03-13T06:34:11.450Z,11.25
2019-03-13T06:35:17.107Z,11.45
2019-03-13T06:36:22.040Z,12.07
2019-03-13T06:37:27.187Z,10.68
2019-03-13T06:38:32.367Z,11.25
2019-03-13T06:39:37.476Z,10.43
2019-03-13T06:40:42.383Z,11.45
2019-03-13T06:41:47.419Z,10.48
2019-03-13T06:42:52.709Z,10.65
2019-03-13T06:43:58.054Z,9.73
2019-03-13T06:45:03.073Z,9.88
2019-03-13T06:46:08.223Z,10.55
2019-03-13T06:47:13.398Z,10.72
2019-03-13T06:48:18.558Z,9.78
2019-03-13T06:49:23.970Z,10.43
2019-03-13T06:50:29.217Z,10.00
2019-03-13T06:51:34.250Z,10.10
2019-03-13T06:52:39.296Z,9.88
2019-03-13T06:53:44.206Z,9.75
2019-03-13T06:54:49.459Z,10.38
2019-03-13T06:55:54.407Z,9.85
2019-03-13T06:56:59.696Z,10.60
2019-03-13T06:58:04.505Z,10.50
2019-03-13T06:59:28.557Z,10.08
2019-03-13T07:01:10.905Z,8.58
2019-03-13T07:02:40.851Z,10.23
2019-03-13T07:04:05.678Z,9.98
2019-03-13T07:05:28.697Z,9.58
2019-03-13T07:06:44.848Z,10.20
2019-03-13T07:08:12.669Z,9.98
2019-03-13T07:09:42.549Z,9.75
2019-03-13T07:10:57.974Z,9.25
2019-03-13T07:12:18.645Z,10.53
2019-03-13T07:13:45.630Z,10.70
2019-03-13T07:15:24.592Z,11.00
2019-03-13T07:16:48.578Z,10.00
2019-03-13T07:18:01.161Z,10.03
2019-03-13T07:19:28.757Z,10.55
2019-03-13T07:21:02.861Z,9.75
2019-03-13T07:22:36.057Z,11.05
2019-03-13T07:23:52.718Z,11.25
2019-03-13T07:25:05.404Z,12.28
2019-03-13T07:26:29.557Z,11.12
2019-03-13T07:27:53.474Z,11.73
2019-03-13T07:29:12.620Z,13.32
2019-03-13T07:30:48.808Z,12.65
2019-03-13T07:32:11.561Z,11.50
2019-03-13T07:33:39.250Z,12.68
2019-03-13T07:34:55.516Z,12.82
2019-03-13T07:36:28.551Z,13.53
2019-03-13T07:37:51.001Z,12.90
2019-03-13T07:39:26.940Z,13.08
2019-03-13T07:40:39.861Z,14.15
2019-03-13T07:42:03.796Z,13.10
2019-03-13T07:43:38.776Z,13.68
2019-03-13T07:45:11.831Z,14.78
2019-03-13T07:46:35.745Z,15.15
2019-03-13T07:48:01.317Z,15.03
2019-03-13T07:49:31.400Z,15.38
2019-03-13T07:50:45.476Z,14.98
2019-03-13T07:52:10.450Z,15.60
2019-03-13T07:53:32.766Z,16.93
2019-03-13T07:54:45.258Z,17.62
2019-03-13T07:56:08.883Z,17.92
2019-03-13T07:57:31.198Z,16.85
2019-03-13T07:58:53.388Z,18.37
2019-03-13T08:00:15.510Z,17.35
2019-03-13T08:01:31.421Z,16.80
2019-03-13T08:02:46.618Z,18.27
2019-03-13T08:04:15.935Z,18.67
2019-03-13T08:05:45.994Z,18.07
2019-03-13T08:07:15.697Z,18.25
2019-03-13T08:08:49.325Z,18.27
2019-03-13T08:10:12.363Z,16.82
2019-03-13T08:11:35.164Z,18.50
2019-03-13T08:13:04.888Z,18.10
2019-03-13T08:14:22.276Z,17.75
2019-03-13T08:15:50.519Z,18.90
2019-03-13T08:17:18.828Z,18.35
2019-03-13T08:18:43.670Z,17.95
2019-03-13T08:20:05.984Z,18.98
2019-03-13T08:21:26.635Z,18.10
2019-03-13T08:22:53.528Z,18.20
2019-03-13T08:24:25.757Z,18.27
2019-03-13T08:26:01.868Z,18.60
2019-03-13T08:27:28.473Z,17.37
2019-03-13T08:28:50.270Z,18.90
2019-03-13T08:30:14.096Z,17.55
2019-03-13T08:31:34.080Z,17.85
2019-03-13T08:32:57.734Z,17.45
2019-03-13T08:34:21.633Z,19.50
2019-03-13T08:35:43.886Z,17.60
2019-03-13T08:37:07.775Z,19.10
2019-03-13T08:38:20.212Z,17.40
2019-03-13T08:39:48.580Z,17.80
2019-03-13T08:41:12.357Z,18.55
2019-03-13T08:42:32.221Z,17.40
2019-03-13T08:43:55.913Z,17.10
2019-03-13T08:45:16.883Z,16.62
2019-03-13T08:46:46.591Z,18.02
2019-03-13T08:48:16.373Z,16.90
2019-03-13T08:49:28.655Z,16.80
2019-03-13T08:51:10.929Z,17.75
2019-03-13T08:52:34.617Z,16.62
2019-03-13T08:53:48.759Z,16.52
2019-03-13T08:55:18.197Z,17.20
2019-03-13T08:56:41.971Z,16.05
2019-03-13T08:57:55.842Z,16.67
2019-03-13T08:59:11.108Z,17.57
2019-03-13T09:00:34.498Z,16.15
2019-03-13T09:01:48.317Z,15.32
2019-03-13T09:03:15.057Z,15.40
2019-03-13T09:04:37.965Z,15.60
2019-03-13T09:05:52.926Z,15.50
2019-03-13T09:07:16.408Z,16.20
2019-03-13T09:08:43.618Z,18.23
2019-03-13T09:10:09.878Z,21.05
2019-03-13T09:11:26.267Z,20.60
2019-03-13T09:12:52.937Z,19.12
2019-03-13T09:14:25.749Z,17.73
2019-03-13T09:15:58.260Z,17.40
2019-03-13T09:17:22.020Z,16.48
2019-03-13T09:18:39.612Z,16.70
2019-03-13T09:20:12.479Z,15.75
2019-03-13T09:21:26.303Z,15.25
2019-03-13T09:22:56.119Z,16.60
2019-03-13T09:24:13.617Z,16.00
2019-03-13T09:25:55.470Z,16.62
2019-03-13T09:27:31.400Z,13.98
2019-03-13T09:29:00.995Z,14.95
2019-03-13T09:30:35.231Z,14.40
2019-03-13T09:32:04.850Z,14.65
2019-03-13T09:33:26.141Z,15.90
2019-03-13T09:34:49.960Z,14.68
2019-03-13T09:36:12.140Z,16.48
2019-03-13T09:37:27.241Z,15.20
2019-03-13T09:38:59.727Z,14.68
2019-03-13T09:40:16.055Z,13.88
2019-03-13T09:41:35.801Z,14.90
2019-03-13T09:43:05.610Z,15.88
2019-03-13T09:44:27.657Z,17.67
2019-03-13T09:45:49.806Z,15.80
2019-03-13T09:47:10.484Z,16.23
2019-03-13T09:48:27.671Z,13.83
2019-03-13T09:49:44.136Z,14.07
2019-03-13T09:50:58.272Z,13.70
2019-03-13T09:52:21.997Z,14.43
2019-03-13T09:53:45.774Z,13.75
2019-03-13T09:55:18.219Z,13.72
2019-03-13T09:56:35.822Z,12.93
2019-03-13T09:57:53.074Z,13.78
2019-03-13T09:59:15.553Z,14.40
2019-03-13T10:00:44.448Z,11.70
2019-03-13T10:02:07.774Z,10.80
2019-03-13T10:03:31.714Z,10.23
2019-03-13T10:05:01.105Z,10.98
2019-03-13T10:06:33.857Z,11.50
2019-03-13T10:07:47.009Z,11.30
2019-03-13T10:09:13.440Z,10.75
2019-03-13T10:10:43.068Z,10.45
2019-03-13T10:12:06.891Z,10.03
2019-03-13T10:13:25.547Z,11.48
2019-03-13T10:14:52.252Z,11.00
2019-03-13T10:16:02.655Z,10.03
2019-03-13T10:17:26.453Z,10.15
2019-03-13T10:18:48.372Z,9.80
2019-03-13T10:20:24.541Z,9.58
2019-03-13T10:21:57.256Z,10.25
2019-03-13T10:23:16.949Z,9.18
2019-03-13T10:24:55.932Z,9.75
2019-03-13T10:26:30.012Z,9.10
2019-03-13T10:27:41.046Z,8.40
2019-03-13T10:29:04.934Z,9.95
2019-03-13T10:30:26.703Z,10.15
2019-03-13T10:31:48.814Z,8.70
2019-03-13T10:33:03.370Z,10.28
2019-03-13T10:34:22.236Z,8.30
2019-03-13T10:35:57.891Z,10.13
2019-03-13T10:37:18.600Z,8.50
2019-03-13T10:38:35.386Z,7.83
2019-03-13T10:40:01.658Z,7.30
2019-03-13T10:41:23.822Z,8.23
2019-03-13T10:42:36.907Z,8.40
2019-03-13T10:44:00.592Z,7.75
2019-03-13T10:45:30.814Z,7.25
2019-03-13T10:46:54.485Z,7.22
2019-03-13T10:48:08.635Z,6.83
2019-03-13T10:49:38.054Z,6.85
2019-03-13T10:50:53.454Z,6.20
2019-03-13T10:52:16.061Z,6.78
2019-03-13T10:53:44.172Z,6.20
2019-03-13T10:55:06.614Z,6.45
2019-03-13T10:56:35.165Z,6.30
2019-03-13T10:58:01.749Z,6.33
2019-03-13T10:59:23.838Z,5.80
2019-03-13T11:00:36.610Z,5.80
2019-03-13T11:02:02.908Z,6.65
2019-03-13T11:03:30.256Z,6.37
2019-03-13T11:05:06.254Z,5.97
2019-03-13T11:06:22.358Z,5.25
2019-03-13T11:07:44.705Z,5.72
2019-03-13T11:09:09.567Z,6.08
2019-03-13T11:10:33.292Z,5.35
2019-03-13T11:11:55.630Z,4.62
2019-03-13T11:13:23.502Z,4.60
2019-03-13T11:15:05.534Z,3.90
2019-03-13T11:16:38.166Z,4.55
2019-03-13T11:17:57.737Z,4.45
2019-03-13T11:19:27.683Z,3.75
2019-03-13T11:20:49.818Z,3.65
2019-03-13T11:22:04.366Z,3.85
2019-03-13T11:23:31.205Z,3.83
2019-03-13T11:24:57.729Z,3.87
2019-03-13T11:26:16.505Z,3.65
2019-03-13T11:27:33.223Z,4.30
2019-03-13T11:28:45.405Z,4.10
2019-03-13T11:30:09.329Z,3.98
2019-03-13T11:31:48.540Z,4.42
2019-03-13T11:33:04.534Z,3.70
2019-03-13T11:34:30.736Z,3.80
2019-03-13T11:36:00.126Z,3.77
2019-03-13T11:37:42.222Z,3.20
2019-03-13T11:38:54.914Z,2.90
2019-03-13T11:40:33.755Z,3.25
2019-03-13T11:41:58.646Z,3.80
2019-03-13T11:43:25.253Z,3.20
2019-03-13T11:44:52.067Z,3.20
2019-03-13T11:46:17.533Z,3.40
2019-03-13T11:47:42.225Z,4.60
2019-03-13T11:48:53.416Z,3.80
2019-03-13T11:50:17.139Z,2.93
2019-03-13T11:51:45.100Z,3.20
2019-03-13T11:53:17.408Z,3.70
2019-03-13T11:54:39.689Z,2.80
2019-03-13T11:55:51.073Z,2.80
2019-03-13T11:57:15.169Z,3.77
2019-03-13T11:58:35.802Z,3.03
2019-03-13T12:00:02.720Z,3.17
2019-03-13T12:01:45.246Z,3.13
2019-03-13T12:03:03.693Z,5.20
2019-03-13T12:04:17.652Z,4.03
2019-03-13T12:05:41.431Z,4.33
2019-03-13T12:07:12.133Z,3.67
2019-03-13T12:08:54.085Z,3.43
2019-03-13T12:10:16.708Z,3.60
2019-03-13T12:11:43.375Z,3.70
2019-03-13T12:13:10.655Z,4.07
2019-03-13T12:14:37.538Z,4.17
2019-03-13T12:15:59.228Z,4.47
2019-03-13T12:17:13.586Z,4.50
2019-03-13T12:18:46.295Z,4.00
2019-03-13T12:20:16.325Z,3.90
2019-03-13T12:21:42.964Z,3.93
2019-03-13T12:22:58.051Z,4.00
2019-03-13T12:24:33.551Z,3.53
2019-03-13T12:25:57.879Z,4.60
2019-03-13T12:27:30.642Z,4.13
2019-03-13T12:28:54.393Z,4.53
2019-03-13T12:30:20.816Z,3.50
2019-03-13T12:32:02.533Z,3.50
2019-03-13T12:33:23.521Z,3.00
2019-03-13T12:35:02.132Z,3.13
2019-03-13T12:36:28.859Z,3.00
2019-03-13T12:38:01.641Z,3.53
2019-03-13T12:39:13.606Z,2.70
2019-03-13T12:40:36.367Z,2.90
2019-03-13T12:42:09.172Z,2.60
2019-03-13T12:43:44.931Z,2.67
2019-03-13T12:45:00.613Z,3.20
2019-03-13T12:46:25.309Z,2.80
2019-03-13T12:47:53.496Z,2.67
2019-03-13T12:49:10.258Z,3.20
2019-03-13T12:50:49.203Z,3.07
2019-03-13T12:52:17.541Z,3.60
2019-03-13T12:53:40.961Z,2.90
2019-03-13T12:55:10.406Z,3.77
2019-03-13T12:56:39.669Z,3.10
2019-03-13T12:58:15.534Z,3.43
2019-03-13T12:59:48.012Z,3.53
2019-03-13T13:01:17.538Z,3.77
2019-03-13T13:02:29.340Z,3.20
2019-03-13T13:03:51.453Z,3.10
2019-03-13T13:05:27.182Z,3.47
2019-03-13T13:06:51.073Z,3.77
2019-03-13T13:08:26.833Z,3.80
2019-03-13T13:10:02.350Z,4.20
2019-03-13T13:11:38.514Z,3.90
2019-03-13T13:12:59.023Z,3.65
2019-03-13T13:14:25.635Z,4.17
2019-03-13T13:15:50.974Z,4.08
2019-03-13T13:17:18.489Z,3.52
2019-03-13T13:18:58.512Z,3.45
2019-03-13T13:20:03.353Z,2.80
2019-03-13T13:21:08.710Z,3.10
2019-03-13T13:22:13.842Z,2.80
2019-03-13T13:23:18.999Z,2.75
2019-03-13T13:24:23.937Z,3.10
2019-03-13T13:25:28.693Z,2.72
2019-03-13T13:26:33.535Z,2.45
2019-03-13T13:27:38.376Z,3.12
2019-03-13T13:28:43.106Z,2.87
2019-03-13T13:29:47.949Z,2.92
2019-03-13T13:30:52.687Z,2.92
2019-03-13T13:31:57.415Z,3.37
2019-03-13T13:33:02.185Z,3.02
2019-03-13T13:34:07.092Z,3.22
2019-03-13T13:35:12.100Z,3.45
2019-03-13T13:36:17.022Z,2.75
2019-03-13T13:37:21.949Z,3.33
2019-03-13T13:38:26.822Z,3.75
2019-03-13T13:39:31.618Z,3.02
2019-03-13T13:40:36.586Z,3.42
2019-03-13T13:41:41.633Z,2.50
2019-03-13T13:42:51.136Z,3.17
2019-03-13T13:43:55.888Z,3.83
2019-03-13T13:45:00.734Z,4.85
2019-03-13T13:46:12.234Z,3.83
2019-03-13T13:47:16.996Z,4.45
2019-03-13T13:48:21.895Z,4.60
2019-03-13T13:49:28.170Z,5.40
2019-03-13T13:50:32.967Z,5.25
2019-03-13T13:51:37.712Z,5.50
2019-03-13T13:52:42.537Z,4.40
2019-03-13T13:53:47.351Z,3.60
2019-03-13T13:54:52.084Z,3.75
2019-03-13T13:55:57.119Z,5.00
2019-03-13T13:57:01.896Z,5.20
2019-03-13T13:58:06.725Z,4.67
2019-03-13T13:59:11.538Z,3.92
2019-03-13T14:00:17.749Z,4.20
2019-03-13T14:01:22.485Z,4.30
2019-03-13T14:02:27.283Z,4.70
2019-03-13T14:03:32.026Z,4.62
2019-03-13T14:04:39.318Z,4.22
2019-03-13T14:05:44.235Z,4.10
2019-03-13T14:06:49.152Z,3.83
2019-03-13T14:07:54.111Z,4.37
2019-03-13T14:08:58.987Z,3.90
2019-03-13T14:10:03.841Z,3.72
2019-03-13T14:11:08.657Z,3.80
2019-03-13T14:12:13.519Z,3.62
2019-03-13T14:13:18.676Z,4.20
2019-03-13T14:14:23.399Z,3.87
2019-03-13T14:15:28.254Z,3.52
2019-03-13T14:16:33.102Z,4.37
2019-03-13T14:17:38.053Z,5.12
2019-03-13T14:18:42.935Z,3.75
2019-03-13T14:19:47.666Z,4.10
2019-03-13T14:20:52.461Z,3.60
2019-03-13T14:21:57.714Z,4.97
2019-03-13T14:23:02.484Z,4.17
2019-03-13T14:24:08.896Z,4.72
2019-03-13T14:25:14.333Z,4.47
2019-03-13T14:26:19.093Z,4.15
2019-03-13T14:27:23.860Z,4.10
2019-03-13T14:28:28.775Z,4.08
2019-03-13T14:29:33.525Z,3.67
2019-03-13T14:30:39.418Z,4.58
2019-03-13T14:31:44.426Z,3.90
2019-03-13T14:32:49.556Z,3.92
2019-03-13T14:33:56.112Z,4.42
2019-03-13T14:35:01.297Z,4.65
2019-03-13T14:36:06.431Z,4.45
2019-03-13T14:37:11.710Z,4.37
2019-03-13T14:38:17.143Z,3.80
2019-03-13T14:39:21.972Z,4.05
2019-03-13T14:40:27.127Z,4.28
2019-03-13T14:41:31.981Z,4.00
2019-03-13T14:42:39.335Z,4.37
2019-03-13T14:43:45.417Z,4.45
2019-03-13T14:44:50.219Z,4.25
2019-03-13T14:45:55.097Z,4.03
2019-03-13T14:47:00.028Z,4.87
2019-03-13T14:48:04.908Z,5.10
2019-03-13T14:49:09.773Z,5.40
2019-03-13T14:50:15.046Z,5.28
2019-03-13T14:51:19.869Z,6.17
2019-03-13T14:52:24.724Z,5.60
2019-03-13T14:53:31.528Z,4.87
2019-03-13T14:54:36.496Z,5.03
2019-03-13T14:55:41.557Z,6.08
2019-03-13T14:56:47.998Z,4.90
2019-03-13T14:57:56.443Z,5.30
2019-03-13T14:59:01.525Z,5.05
2019-03-13T15:00:10.951Z,5.40
2019-03-13T15:01:16.217Z,6.25
2019-03-13T15:02:21.328Z,5.37
2019-03-13T15:03:26.295Z,5.30
2019-03-13T15:04:31.182Z,5.37
2019-03-13T15:05:36.200Z,6.10
2019-03-13T15:07:00.049Z,5.70
2019-03-13T15:08:05.008Z,5.30
2019-03-13T15:09:09.991Z,4.95
2019-03-13T15:10:15.865Z,5.00
2019-03-13T15:11:20.897Z,4.75
2019-03-13T15:12:27.088Z,5.80
2019-03-13T15:13:32.556Z,5.60
2019-03-13T15:14:37.534Z,4.80
2019-03-13T15:15:42.487Z,4.65
2019-03-13T15:16:47.364Z,5.15
2019-03-13T15:17:53.420Z,5.37
2019-03-13T15:18:59.196Z,5.20
2019-03-13T15:20:04.176Z,4.60
2019-03-13T15:21:09.285Z,4.67
2019-03-13T15:22:14.288Z,5.05
2019-03-13T15:23:19.217Z,6.40
2019-03-13T15:24:24.177Z,5.92
2019-03-13T15:25:29.284Z,5.85
2019-03-13T15:26:34.322Z,6.28
2019-03-13T15:27:39.376Z,6.53
2019-03-13T15:28:44.225Z,7.05
2019-03-13T15:29:49.126Z,6.28
2019-03-13T15:30:54.330Z,10.98
2019-03-13T15:31:59.290Z,8.80
2019-03-13T15:33:04.884Z,9.28
2019-03-13T15:34:10.422Z,8.30
2019-03-13T15:35:15.324Z,7.30
2019-03-13T15:36:20.506Z,5.90
2019-03-13T15:37:25.396Z,5.37
2019-03-13T15:38:30.404Z,4.92
2019-03-13T15:39:35.451Z,4.90
2019-03-13T15:40:40.492Z,4.62